createdAt,value
2023-10-02T00:02:23.637Z,12.38
2023-10-02T00:04:51.552Z,12.60
2023-10-02T00:07:18.058Z,13.40
2023-10-02T00:09:44.679Z,12.75
2023-10-02T00:12:11.137Z,12.60
2023-10-02T00:14:37.677Z,13.07
2023-10-02T00:17:04.214Z,12.35
2023-10-02T00:19:30.723Z,11.15
2023-10-02T00:21:57.188Z,13.75
2023-10-02T00:24:23.610Z,12.65
2023-10-02T00:26:50.050Z,11.18
2023-10-02T00:29:16.544Z,11.32
2023-10-02T00:31:43.145Z,10.63
2023-10-02T00:34:09.607Z,13.73
2023-10-02T00:36:36.039Z,12.82
2023-10-02T00:39:02.499Z,12.40
2023-10-02T00:41:29.171Z,14.68
2023-10-02T00:43:55.912Z,11.50
2023-10-02T00:46:22.497Z,13.73
2023-10-02T00:48:48.965Z,12.35
2023-10-02T00:51:15.674Z,11.77
2023-10-02T00:53:42.364Z,9.68
2023-10-02T00:56:08.777Z,10.77
2023-10-02T00:58:35.651Z,11.73
2023-10-02T01:01:02.206Z,11.82
2023-10-02T01:03:28.829Z,12.82
2023-10-02T01:05:55.476Z,9.73
2023-10-02T01:08:22.061Z,10.70
2023-10-02T01:10:48.927Z,11.98
2023-10-02T01:13:15.476Z,10.98
2023-10-02T01:15:50.051Z,12.57
2023-10-02T01:18:17.227Z,10.85
2023-10-02T01:20:43.945Z,11.02
2023-10-02T01:23:10.628Z,12.32
2023-10-02T01:25:37.097Z,11.65
2023-10-02T01:28:03.540Z,12.73
2023-10-02T01:30:29.997Z,11.20
2023-10-02T01:32:56.478Z,10.18
2023-10-02T01:35:22.948Z,11.18
2023-10-02T01:37:49.713Z,10.90
2023-10-02T01:40:16.173Z,10.90
2023-10-02T01:42:42.614Z,11.65
2023-10-02T01:45:09.037Z,12.20
2023-10-02T01:47:36.557Z,11.65
2023-10-02T01:50:03.014Z,12.20
2023-10-02T01:52:41.825Z,10.35
2023-10-02T01:55:17.193Z,12.02
2023-10-02T01:57:44.020Z,11.80
2023-10-02T02:00:10.584Z,10.68
2023-10-02T02:02:37.157Z,10.50
2023-10-02T02:05:08.210Z,13.75
2023-10-02T02:07:34.806Z,14.23
2023-10-02T02:10:01.265Z,11.82
2023-10-02T02:12:27.842Z,11.10
2023-10-02T02:14:55.286Z,11.52
2023-10-02T02:17:26.372Z,11.98
2023-10-02T02:19:55.418Z,11.60
2023-10-02T02:22:21.888Z,11.40
2023-10-02T02:24:48.289Z,11.55
2023-10-02T02:27:15.676Z,14.35
2023-10-02T02:29:42.141Z,10.30
2023-10-02T02:32:08.806Z,13.55
2023-10-02T02:34:35.597Z,12.90
2023-10-02T02:37:02.127Z,12.10
2023-10-02T02:39:28.549Z,12.95
2023-10-02T02:41:56.036Z,13.65
2023-10-02T02:44:22.424Z,11.85
2023-10-02T02:46:49.001Z,14.23
2023-10-02T02:49:15.663Z,13.63
2023-10-02T02:51:42.436Z,11.85
2023-10-02T02:54:10.312Z,11.45
2023-10-02T02:56:36.927Z,12.40
2023-10-02T02:59:03.470Z,12.05
2023-10-02T03:01:29.938Z,13.93
2023-10-02T03:03:57.674Z,9.63
2023-10-02T03:06:24.279Z,13.60
2023-10-02T03:08:50.952Z,12.60
2023-10-02T03:11:17.346Z,11.70
2023-10-02T03:13:43.799Z,11.65
2023-10-02T03:16:10.297Z,12.85
2023-10-02T03:18:36.958Z,12.50
2023-10-02T03:21:03.324Z,10.38
2023-10-02T03:23:32.482Z,10.50
2023-10-02T03:25:59.100Z,12.50
2023-10-02T03:28:25.883Z,11.20
2023-10-02T03:30:52.490Z,13.63
2023-10-02T03:33:19.086Z,12.13
2023-10-02T03:35:45.546Z,13.30
2023-10-02T03:38:14.085Z,11.40
2023-10-02T03:40:40.823Z,10.52
2023-10-02T03:43:07.276Z,15.65
2023-10-02T03:45:33.915Z,13.07
2023-10-02T03:48:01.059Z,16.55
2023-10-02T03:50:27.645Z,12.73
2023-10-02T03:52:54.349Z,13.25
2023-10-02T03:55:20.848Z,12.43
2023-10-02T03:57:47.316Z,11.43
2023-10-02T04:00:13.836Z,16.38
2023-10-02T04:02:40.373Z,13.00
2023-10-02T04:05:06.923Z,13.82
2023-10-02T04:07:33.400Z,10.38
2023-10-02T04:09:59.887Z,13.75
2023-10-02T04:12:26.897Z,14.07
2023-10-02T04:14:53.294Z,11.75
2023-10-02T04:17:19.843Z,12.00
2023-10-02T04:19:46.303Z,12.05
2023-10-02T04:22:12.671Z,12.48
2023-10-02T04:24:39.183Z,12.65
2023-10-02T04:27:05.544Z,14.63
2023-10-02T04:29:32.187Z,13.23
2023-10-02T04:31:59.763Z,14.32
2023-10-02T04:34:26.353Z,15.43
2023-10-02T04:36:52.934Z,13.57
2023-10-02T04:39:19.401Z,11.60
2023-10-02T04:41:46.201Z,12.13
2023-10-02T04:44:12.685Z,13.98
2023-10-02T04:46:39.288Z,13.77
2023-10-02T04:49:06.111Z,14.23
2023-10-02T04:51:32.542Z,13.07
2023-10-02T04:53:59.090Z,14.63
2023-10-02T04:56:25.638Z,14.30
2023-10-02T04:58:52.294Z,15.38
2023-10-02T05:01:19.095Z,13.40
2023-10-02T05:03:45.772Z,15.23
2023-10-02T05:06:12.546Z,14.43
2023-10-02T05:08:39.013Z,12.43
2023-10-02T05:11:05.832Z,14.82
2023-10-02T05:13:32.347Z,16.73
2023-10-02T05:15:59.038Z,16.80
2023-10-02T05:18:25.531Z,14.35
2023-10-02T05:20:55.078Z,12.73
2023-10-02T05:23:26.372Z,18.73
2023-10-02T05:25:53.535Z,17.67
2023-10-02T05:28:20.101Z,21.88
2023-10-02T05:30:47.016Z,13.27
2023-10-02T05:33:13.527Z,14.15
2023-10-02T05:35:40.364Z,13.40
2023-10-02T05:38:06.807Z,15.75
2023-10-02T05:40:35.624Z,16.55
2023-10-02T05:43:02.339Z,14.73
2023-10-02T05:45:29.812Z,14.95
2023-10-02T05:47:56.784Z,15.00
2023-10-02T05:50:23.252Z,16.58
2023-10-02T05:52:49.784Z,14.80
2023-10-02T05:55:16.382Z,13.75
2023-10-02T05:57:43.058Z,15.40
2023-10-02T06:00:09.462Z,14.15
2023-10-02T06:02:35.977Z,13.98
2023-10-02T06:05:02.691Z,19.70
2023-10-02T06:07:30.285Z,16.70
2023-10-02T06:09:56.685Z,16.13
2023-10-02T06:12:23.181Z,17.00
2023-10-02T06:14:50.453Z,18.13
2023-10-02T06:17:17.732Z,16.42
2023-10-02T06:19:44.335Z,14.65
2023-10-02T06:22:10.901Z,19.52
2023-10-02T06:24:38.054Z,17.58
2023-10-02T06:27:04.718Z,18.50
2023-10-02T06:29:31.253Z,20.75
2023-10-02T06:31:58.783Z,23.92
2023-10-02T06:34:26.058Z,18.33
2023-10-02T06:36:52.811Z,17.13
2023-10-02T06:39:19.350Z,14.68
2023-10-02T06:41:45.792Z,17.85
2023-10-02T06:44:12.633Z,16.30
2023-10-02T06:46:39.516Z,13.90
2023-10-02T06:49:08.429Z,19.63
2023-10-02T06:51:35.025Z,17.08
2023-10-02T06:54:09.104Z,15.70
2023-10-02T06:56:35.602Z,13.88
2023-10-02T06:59:02.757Z,16.98
2023-10-02T07:01:29.724Z,18.08
2023-10-02T07:03:56.627Z,17.42
2023-10-02T07:06:23.285Z,22.27
2023-10-02T07:08:50.115Z,19.80
2023-10-02T07:11:17.493Z,15.73
2023-10-02T07:13:44.040Z,17.38
2023-10-02T07:16:10.659Z,18.13
2023-10-02T07:18:37.198Z,21.10
2023-10-02T07:21:04.392Z,23.95
2023-10-02T07:23:31.389Z,17.88
2023-10-02T07:26:00.377Z,21.58
2023-10-02T07:28:26.851Z,15.75
2023-10-02T07:30:53.288Z,17.25
2023-10-02T07:33:23.377Z,12.95
2023-10-02T07:35:49.946Z,20.60
2023-10-02T07:38:16.520Z,18.25
2023-10-02T07:40:43.389Z,17.70
2023-10-02T07:43:09.952Z,15.18
2023-10-02T07:45:36.566Z,17.88
2023-10-02T07:48:03.105Z,15.00
2023-10-02T07:50:29.675Z,18.27
2023-10-02T07:52:57.221Z,16.33
2023-10-02T07:55:24.115Z,24.40
2023-10-02T07:57:50.949Z,20.38
2023-10-02T08:00:17.381Z,18.20
2023-10-02T08:02:43.878Z,20.92
2023-10-02T08:05:10.990Z,22.75
2023-10-02T08:07:45.572Z,18.10
2023-10-02T08:10:13.166Z,21.50
2023-10-02T08:12:41.173Z,17.15
2023-10-02T08:15:07.657Z,19.33
2023-10-02T08:17:34.185Z,17.77
2023-10-02T08:20:01.232Z,13.98
2023-10-02T08:22:28.047Z,16.55
2023-10-02T08:24:57.017Z,17.45
2023-10-02T08:27:23.639Z,21.40
2023-10-02T08:29:50.138Z,18.08
2023-10-02T08:32:16.776Z,20.25
2023-10-02T08:34:43.403Z,23.80
2023-10-02T08:37:09.976Z,17.48
2023-10-02T08:39:36.462Z,20.85
2023-10-02T08:42:02.869Z,18.52
2023-10-02T08:44:29.741Z,21.27
2023-10-02T08:46:56.492Z,19.38
2023-10-02T08:49:23.122Z,18.63
2023-10-02T08:51:50.594Z,25.13
2023-10-02T08:54:17.632Z,19.70
2023-10-02T08:56:44.379Z,19.67
2023-10-02T08:59:11.217Z,19.48
2023-10-02T09:01:37.852Z,19.38
2023-10-02T09:04:04.417Z,19.92
2023-10-02T09:06:31.259Z,20.95
2023-10-02T09:08:57.675Z,18.15
2023-10-02T09:11:24.538Z,22.30
2023-10-02T09:13:50.967Z,25.35
2023-10-02T09:16:17.437Z,18.92
2023-10-02T09:18:44.364Z,20.67
2023-10-02T09:21:10.752Z,20.48
2023-10-02T09:23:38.305Z,23.83
2023-10-02T09:26:04.954Z,16.75
2023-10-02T09:28:31.692Z,22.80
2023-10-02T09:30:58.516Z,15.40
2023-10-02T09:33:31.402Z,17.23
2023-10-02T09:36:32.928Z,19.70
2023-10-02T09:38:58.155Z,15.73
2023-10-02T09:41:27.230Z,17.35
2023-10-02T09:43:53.929Z,16.83
2023-10-02T09:46:21.557Z,13.02
2023-10-02T09:48:48.832Z,14.40
2023-10-02T09:51:15.316Z,17.13
2023-10-02T09:53:44.132Z,13.27
2023-10-02T09:56:10.684Z,14.57
2023-10-02T09:58:37.148Z,13.32
2023-10-02T10:01:03.569Z,16.50
2023-10-02T10:03:30.480Z,15.57
2023-10-02T10:05:58.545Z,15.43
2023-10-02T10:08:26.797Z,20.00
2023-10-02T10:10:53.532Z,24.20
2023-10-02T10:13:21.584Z,19.02
2023-10-02T10:15:48.328Z,21.00
2023-10-02T10:18:15.230Z,16.00
2023-10-02T10:20:42.894Z,12.63
2023-10-02T10:23:09.404Z,14.20
2023-10-02T10:25:35.917Z,14.77
2023-10-02T10:28:02.409Z,16.95
2023-10-02T10:30:29.381Z,11.45
2023-10-02T10:32:56.191Z,12.65
2023-10-02T10:35:23.061Z,11.95
2023-10-02T10:37:49.766Z,12.23
2023-10-02T10:40:16.636Z,11.95
2023-10-02T10:42:43.311Z,11.82
2023-10-02T10:45:13.435Z,8.48
2023-10-02T10:47:40.030Z,10.98
2023-10-02T10:50:06.756Z,12.88
2023-10-02T10:52:33.277Z,12.13
2023-10-02T10:55:00.861Z,14.45
2023-10-02T10:57:29.307Z,10.52
2023-10-02T10:59:55.982Z,13.45
2023-10-02T11:02:22.652Z,9.13
2023-10-02T11:04:49.358Z,14.10
2023-10-02T11:07:16.132Z,9.77
2023-10-02T11:09:43.677Z,12.50
2023-10-02T11:12:10.240Z,16.88
2023-10-02T11:14:37.234Z,14.93
2023-10-02T11:17:04.201Z,12.85
2023-10-02T11:19:30.674Z,12.20
2023-10-02T11:21:57.112Z,10.00
2023-10-02T11:24:23.640Z,9.93
2023-10-02T11:26:50.333Z,10.23
2023-10-02T11:29:19.487Z,17.45
2023-10-02T11:31:46.272Z,10.30
2023-10-02T11:36:42.711Z,9.85
2023-10-02T11:39:09.160Z,11.20
2023-10-02T11:41:38.114Z,11.45
2023-10-02T11:44:04.883Z,10.82
2023-10-02T11:46:31.376Z,10.82
2023-10-02T11:48:58.096Z,11.13
2023-10-02T11:51:24.567Z,9.95
2023-10-02T11:53:51.038Z,14.10
2023-10-02T11:56:17.584Z,10.68
2023-10-02T11:58:44.437Z,13.30
2023-10-02T12:01:10.856Z,10.32
2023-10-02T12:03:37.739Z,9.05
2023-10-02T12:06:04.312Z,11.23
2023-10-02T12:08:30.767Z,12.35
2023-10-02T12:10:57.275Z,10.88
2023-10-02T12:13:23.782Z,10.25
2023-10-02T12:15:50.823Z,10.90
2023-10-02T12:18:17.339Z,10.57
2023-10-02T12:20:44.103Z,7.85
2023-10-02T12:23:10.853Z,9.45
2023-10-02T12:25:37.412Z,10.23
2023-10-02T12:28:03.986Z,9.95
2023-10-02T12:30:30.395Z,10.45
2023-10-02T12:32:56.869Z,12.15
2023-10-02T12:35:23.522Z,10.85
2023-10-02T12:37:49.981Z,12.77
2023-10-02T12:40:16.439Z,11.50
2023-10-02T12:42:42.891Z,10.65
2023-10-02T12:45:09.399Z,8.73
2023-10-02T12:47:36.044Z,14.75
2023-10-02T12:50:03.694Z,10.38
2023-10-02T12:52:30.805Z,10.70
2023-10-02T12:54:57.771Z,10.45
2023-10-02T12:57:24.498Z,9.52
2023-10-02T12:59:51.030Z,8.88
2023-10-02T13:02:17.575Z,10.30
2023-10-02T13:04:44.569Z,9.93
2023-10-02T13:07:10.987Z,10.25
2023-10-02T13:09:39.908Z,10.95
2023-10-02T13:12:07.596Z,9.25
2023-10-02T13:14:34.103Z,10.13
2023-10-02T13:17:00.669Z,11.35
2023-10-02T13:19:27.130Z,8.27
2023-10-02T13:21:54.454Z,14.13
2023-10-02T13:24:21.356Z,9.63
2023-10-02T13:26:48.311Z,12.50
2023-10-02T13:29:14.797Z,8.18
2023-10-02T13:31:41.766Z,9.00
2023-10-02T13:34:08.410Z,8.85
2023-10-02T13:36:35.511Z,9.43
2023-10-02T13:39:02.608Z,9.52
2023-10-02T13:41:29.378Z,10.50
2023-10-02T13:43:57.252Z,8.98
2023-10-02T13:46:24.103Z,10.80
2023-10-02T13:48:50.859Z,13.13
2023-10-02T13:51:17.420Z,8.45
2023-10-02T13:53:43.918Z,8.40
2023-10-02T13:56:11.871Z,11.82
2023-10-02T13:58:38.413Z,9.43
2023-10-02T14:01:05.127Z,12.05
2023-10-02T14:03:31.823Z,8.80
2023-10-02T14:05:58.378Z,13.25
2023-10-02T14:08:25.753Z,10.65
2023-10-02T14:10:52.684Z,10.88
2023-10-02T14:13:19.305Z,10.38
2023-10-02T14:15:46.237Z,8.10
2023-10-02T14:18:13.266Z,8.48
2023-10-02T14:20:41.814Z,8.60
2023-10-02T14:23:08.780Z,9.10
2023-10-02T14:25:35.376Z,12.15
2023-10-02T14:28:01.998Z,8.48
2023-10-02T14:30:28.470Z,9.75
2023-10-02T14:32:57.334Z,10.60
2023-10-02T14:35:25.744Z,10.48
2023-10-02T14:37:52.309Z,9.70
2023-10-02T14:40:19.067Z,13.27
2023-10-02T14:42:55.117Z,9.43
2023-10-02T14:45:21.659Z,10.07
2023-10-02T14:47:48.383Z,7.72
2023-10-02T14:50:15.043Z,10.05
2023-10-02T14:52:41.887Z,8.77
2023-10-02T14:55:09.513Z,10.75
2023-10-02T14:57:36.237Z,12.95
2023-10-02T15:00:02.921Z,11.10
2023-10-02T15:02:29.679Z,11.25
2023-10-02T15:04:56.770Z,10.38
2023-10-02T15:07:23.395Z,14.93
2023-10-02T15:09:49.910Z,16.08
2023-10-02T15:12:17.402Z,14.15
2023-10-02T15:14:43.803Z,11.35
2023-10-02T15:17:10.423Z,9.88
2023-10-02T15:19:37.608Z,10.48
2023-10-02T15:22:04.209Z,12.77
2023-10-02T15:24:30.821Z,13.70
2023-10-02T15:26:59.693Z,10.35
2023-10-02T15:29:26.282Z,11.10
2023-10-02T15:31:52.922Z,10.98
2023-10-02T15:34:19.401Z,10.77
2023-10-02T15:36:45.837Z,11.48
2023-10-02T15:39:12.310Z,12.00
2023-10-02T15:41:38.813Z,12.20
2023-10-02T15:44:05.675Z,12.10
2023-10-02T15:46:32.390Z,11.15
2023-10-02T15:48:59.085Z,16.15
2023-10-02T15:51:26.706Z,10.63
2023-10-02T15:53:55.563Z,10.30
2023-10-02T15:56:25.763Z,10.88
2023-10-02T15:58:52.646Z,13.73
2023-10-02T16:01:19.114Z,15.07
2023-10-02T16:03:46.024Z,9.52
2023-10-02T16:06:12.489Z,11.55
2023-10-02T16:08:38.954Z,11.98
2023-10-02T16:11:05.484Z,11.20
2023-10-02T16:13:32.040Z,11.25
2023-10-02T16:15:58.912Z,14.75
2023-10-02T16:18:25.421Z,12.07
2023-10-02T16:20:54.283Z,15.00
2023-10-02T16:23:20.718Z,12.68
2023-10-02T16:25:54.645Z,15.65
2023-10-02T16:28:21.093Z,14.07
2023-10-02T16:30:49.957Z,12.05
2023-10-02T16:33:17.038Z,14.82
2023-10-02T16:35:43.579Z,14.25
2023-10-02T16:38:11.154Z,15.90
2023-10-02T16:40:37.700Z,13.25
2023-10-02T16:43:06.346Z,14.55
2023-10-02T16:45:33.233Z,13.98
2023-10-02T16:48:00.517Z,15.10
2023-10-02T16:52:53.468Z,14.63
2023-10-02T16:55:20.328Z,14.23
2023-10-02T16:57:46.752Z,12.77
2023-10-02T17:00:13.526Z,14.57
2023-10-02T17:02:40.281Z,13.02
2023-10-02T17:05:10.216Z,13.40
2023-10-02T17:07:37.792Z,13.90
2023-10-02T17:10:04.799Z,14.43
2023-10-02T17:12:31.418Z,13.32
2023-10-02T17:14:58.214Z,11.73
2023-10-02T17:17:24.958Z,11.65
2023-10-02T17:19:51.493Z,14.10
2023-10-02T17:22:18.361Z,15.48
2023-10-02T17:27:25.695Z,17.67
2023-10-02T17:29:53.699Z,15.80
2023-10-02T17:32:20.950Z,11.73
2023-10-02T17:34:48.074Z,17.30
2023-10-02T17:37:15.333Z,13.15
2023-10-02T17:39:42.631Z,15.18
2023-10-02T17:42:10.494Z,13.57
2023-10-02T17:44:39.127Z,18.27
2023-10-02T17:47:06.527Z,17.17
2023-10-02T17:49:33.918Z,13.98
2023-10-02T17:52:05.362Z,13.45
2023-10-02T17:54:32.823Z,17.63
2023-10-02T17:57:04.732Z,13.60
2023-10-02T17:59:31.996Z,13.48
2023-10-02T18:01:59.496Z,11.20
2023-10-02T18:04:26.966Z,12.70
2023-10-02T18:06:54.355Z,15.18
2023-10-02T18:09:21.762Z,14.98
2023-10-02T18:11:49.167Z,15.38
2023-10-02T18:14:16.808Z,15.48
2023-10-02T18:16:44.104Z,14.25
2023-10-02T18:19:11.435Z,12.70
2023-10-02T18:21:38.990Z,15.00
2023-10-02T18:24:08.803Z,18.73
2023-10-02T18:26:36.112Z,16.27
2023-10-02T18:29:03.678Z,16.30
2023-10-02T18:31:31.219Z,12.75
2023-10-02T18:33:58.519Z,13.77
2023-10-02T18:36:25.934Z,15.18
2023-10-02T18:38:53.237Z,14.30
2023-10-02T18:41:20.630Z,15.43
2023-10-02T18:43:48.093Z,16.58
2023-10-02T18:46:15.387Z,13.77
2023-10-02T18:48:45.744Z,13.27
2023-10-02T18:51:13.058Z,14.82
2023-10-02T18:53:40.577Z,16.85
2023-10-02T18:56:08.091Z,19.08
2023-10-02T18:58:35.499Z,17.58
2023-10-02T19:01:03.468Z,17.77
2023-10-02T19:03:31.020Z,16.15
2023-10-02T19:05:58.450Z,16.60
2023-10-02T19:08:26.766Z,24.38
2023-10-02T19:10:54.117Z,20.73
2023-10-02T19:13:22.055Z,18.13
2023-10-02T19:15:49.510Z,22.98
2023-10-02T19:18:16.932Z,20.48
2023-10-02T19:20:44.731Z,16.17
2023-10-02T19:23:12.192Z,17.10
2023-10-02T19:25:39.785Z,16.20
2023-10-02T19:28:07.047Z,22.63
2023-10-02T19:30:34.408Z,21.00
2023-10-02T19:33:01.907Z,17.35
2023-10-02T19:35:29.334Z,19.92
2023-10-02T19:37:56.700Z,18.95
2023-10-02T19:40:24.020Z,14.23
2023-10-02T19:42:54.314Z,20.42
2023-10-02T19:45:21.802Z,21.58
2023-10-02T19:47:54.786Z,18.73
2023-10-02T19:50:22.054Z,14.75
2023-10-02T19:52:49.746Z,17.77
2023-10-02T19:55:17.013Z,17.30
2023-10-02T19:57:44.349Z,15.95
2023-10-02T20:00:12.044Z,16.65
2023-10-02T20:02:39.743Z,16.23
2023-10-02T20:05:09.392Z,19.75
2023-10-02T20:07:38.247Z,17.67
2023-10-02T20:10:05.563Z,21.33
2023-10-02T20:12:34.106Z,17.75
2023-10-02T20:15:01.344Z,18.17
2023-10-02T20:17:28.854Z,19.70
2023-10-02T20:19:56.742Z,19.50
2023-10-02T20:22:23.950Z,18.10
2023-10-02T20:24:52.552Z,19.92
2023-10-02T20:27:20.705Z,18.45
2023-10-02T20:29:50.024Z,17.15
2023-10-02T20:32:18.192Z,17.60
2023-10-02T20:34:45.058Z,17.08
2023-10-02T20:37:11.583Z,16.20
2023-10-02T20:39:38.464Z,22.70
2023-10-02T20:42:05.376Z,22.33
2023-10-02T20:44:32.076Z,16.08
2023-10-02T20:47:11.497Z,17.70
2023-10-02T20:49:41.573Z,16.77
2023-10-02T20:52:08.317Z,18.98
2023-10-02T20:54:34.713Z,16.73
2023-10-02T20:57:01.108Z,14.82
2023-10-02T20:59:27.602Z,19.15
2023-10-02T21:02:01.212Z,17.08
2023-10-02T21:04:27.995Z,20.95
2023-10-02T21:06:54.486Z,16.65
2023-10-02T21:09:20.930Z,15.15
2023-10-02T21:11:47.609Z,16.50
2023-10-02T21:14:16.749Z,16.95
2023-10-02T21:16:43.409Z,18.67
2023-10-02T21:19:10.012Z,20.25
2023-10-02T21:21:36.466Z,22.75
2023-10-02T21:24:02.857Z,18.67
2023-10-02T21:26:29.605Z,17.13
2023-10-02T21:28:57.123Z,17.52
2023-10-02T21:31:23.988Z,23.85
2023-10-02T21:33:50.497Z,19.60
2023-10-02T21:36:17.064Z,19.52
2023-10-02T21:38:43.770Z,20.27
2023-10-02T21:41:10.269Z,22.73
2023-10-02T21:43:36.805Z,18.60
2023-10-02T21:46:03.288Z,14.90
2023-10-02T21:48:29.794Z,17.65
2023-10-02T21:50:56.282Z,21.25
2023-10-02T21:53:22.732Z,20.80
2023-10-02T21:55:49.240Z,17.15
2023-10-02T21:58:15.882Z,18.77
2023-10-02T22:00:42.473Z,16.92
2023-10-02T22:03:09.186Z,17.48
2023-10-02T22:05:35.730Z,15.20
2023-10-02T22:08:02.345Z,15.23
2023-10-02T22:10:28.963Z,16.38
2023-10-02T22:12:56.142Z,14.70
2023-10-02T22:15:22.611Z,15.85
2023-10-02T22:17:49.671Z,18.58
2023-10-02T22:20:16.484Z,16.00
2023-10-02T22:22:43.491Z,18.55
2023-10-02T22:25:09.950Z,16.50
2023-10-02T22:27:38.617Z,15.13
2023-10-02T22:30:05.019Z,18.70
2023-10-02T22:32:31.563Z,16.48
2023-10-02T22:35:01.112Z,16.15
2023-10-02T22:37:27.793Z,18.00
2023-10-02T22:39:54.563Z,27.77
2023-10-02T22:42:20.977Z,17.85
2023-10-02T22:44:50.419Z,17.25
2023-10-02T22:47:16.885Z,19.45
2023-10-02T22:49:43.328Z,21.00
2023-10-02T22:52:10.025Z,18.10
2023-10-02T22:54:36.443Z,19.58
2023-10-02T22:57:03.474Z,17.83
2023-10-02T22:59:30.148Z,17.50
2023-10-02T23:01:56.568Z,16.73
2023-10-02T23:04:23.037Z,18.52
2023-10-02T23:06:49.476Z,15.65
2023-10-02T23:09:15.900Z,14.60
2023-10-02T23:11:42.668Z,13.50
2023-10-02T23:14:09.407Z,17.67
2023-10-02T23:16:35.822Z,18.75
2023-10-02T23:19:04.462Z,16.08
2023-10-02T23:21:31.019Z,13.45
2023-10-02T23:23:57.436Z,15.20
2023-10-02T23:26:24.224Z,15.32
2023-10-02T23:28:51.688Z,15.40
2023-10-02T23:31:25.501Z,14.93
2023-10-02T23:33:52.035Z,19.67
2023-10-02T23:36:18.470Z,14.75
2023-10-02T23:38:47.003Z,15.73
2023-10-02T23:41:13.530Z,15.73
2023-10-02T23:43:40.339Z,14.65
2023-10-02T23:46:07.066Z,15.15
2023-10-02T23:48:34.600Z,15.85
2023-10-02T23:51:01.114Z,13.88
2023-10-02T23:53:27.749Z,15.05
2023-10-02T23:55:54.136Z,14.77
2023-10-02T23:58:20.570Z,13.80
